Terminal Aerodrome Forecast
Issued by NWS

Home | Current Version | Previous Version | Text Only | Print | Product List | Glossary On
Versions: 1 2 3 4 5 6 7 8 9 10 11 12 13
000
FTUS43 KJKL 270539
TAFSJS
TAF
KSJS 270539Z 2706/2806 33003KT P6SM -RA OVC018
     FM270800 34005KT 4SM BR OVC008
     FM271000 35004KT P6SM OVC025
     FM271300 34005KT 6SM BR SCT025 BKN050
     FM271800 32006KT P6SM VCSH BKN050
     FM280200 33004KT P6SM SCT050=

USA.gov is the U.S. government's official web portal to all federal, state and local government web resources and services.